createdAt,value
2022-12-01T00:01:07.403Z,98871.41
2022-12-01T00:03:34.329Z,98872.38
2022-12-01T00:06:03.181Z,98870.25
2022-12-01T00:08:30.011Z,98867.94
2022-12-01T00:11:04.308Z,98870.09
2022-12-01T00:13:31.079Z,98870.41
2022-12-01T00:15:57.754Z,98865.03
2022-12-01T00:18:24.410Z,98870.56
2022-12-01T00:20:56.115Z,98861.88
2022-12-01T00:23:23.616Z,98870.69
2022-12-01T00:25:50.412Z,98866.56
2022-12-01T00:28:17.200Z,98863.84
2022-12-01T00:30:43.923Z,98856.97
2022-12-01T00:33:10.671Z,98868.06
2022-12-01T00:35:37.308Z,98868.75
2022-12-01T00:38:03.985Z,98866.66
2022-12-01T00:40:30.626Z,98865.63
2022-12-01T00:42:57.220Z,98871.78
2022-12-01T00:45:23.896Z,98874.56
2022-12-01T00:47:50.534Z,98878.13
2022-12-01T00:50:17.226Z,98873.81
2022-12-01T00:52:43.820Z,98869.97
2022-12-01T00:55:13.576Z,98875.31
2022-12-01T00:57:40.199Z,98875.19
2022-12-01T01:00:07.594Z,98876.28
2022-12-01T01:02:34.346Z,98882.63
2022-12-01T01:05:00.967Z,98876.41
2022-12-01T01:07:30.150Z,98881.63
2022-12-01T01:09:56.783Z,98876.56
2022-12-01T01:12:23.442Z,98881.56
2022-12-01T01:14:50.078Z,98883.78
2022-12-01T01:17:16.686Z,98880.16
2022-12-01T01:19:43.357Z,98889.00
2022-12-01T01:22:09.969Z,98888.94
2022-12-01T01:24:36.711Z,98884.41
2022-12-01T01:27:03.697Z,98887.38
2022-12-01T01:29:30.293Z,98882.44
2022-12-01T01:31:56.931Z,98881.63
2022-12-01T01:34:23.735Z,98885.06
2022-12-01T01:36:50.361Z,98884.41
2022-12-01T01:39:17.256Z,98885.50
2022-12-01T01:41:44.028Z,98883.47
2022-12-01T01:44:41.259Z,98883.72
2022-12-01T01:47:07.945Z,98877.22
2022-12-01T01:49:38.193Z,98877.00
2022-12-01T01:52:08.356Z,98874.47
2022-12-01T01:54:40.195Z,98879.00
2022-12-01T01:57:10.133Z,98881.34
2022-12-01T01:59:40.989Z,98878.34
2022-12-01T02:02:10.201Z,98875.28
2022-12-01T02:04:41.833Z,98872.53
2022-12-01T02:07:09.056Z,98870.59
2022-12-01T02:09:36.830Z,98864.69
2022-12-01T02:12:34.311Z,98870.59
2022-12-01T02:15:15.987Z,98866.34
2022-12-01T02:17:43.683Z,98868.41
2022-12-01T02:20:31.227Z,98872.53
2022-12-01T02:22:59.872Z,98871.63
2022-12-01T02:25:38.549Z,98873.72
2022-12-01T02:28:31.149Z,98868.56
2022-12-01T02:31:15.179Z,98868.31
2022-12-01T02:33:55.908Z,98865.81
2022-12-01T02:36:34.886Z,98863.09
2022-12-01T02:39:14.928Z,98862.41
2022-12-01T02:41:53.346Z,98862.09
2022-12-01T02:44:38.411Z,98867.38
2022-12-01T02:47:10.904Z,98866.19
2022-12-01T02:49:44.048Z,98862.84
2022-12-01T02:52:11.559Z,98865.97
2022-12-01T02:54:39.056Z,98856.81
2022-12-01T02:57:05.654Z,98859.25
2022-12-01T02:59:32.294Z,98864.47
2022-12-01T03:02:34.192Z,98856.81
2022-12-01T03:05:21.420Z,98852.44
2022-12-01T03:08:01.743Z,98859.09
2022-12-01T03:10:43.813Z,98854.34
2022-12-01T03:13:26.674Z,98853.41
2022-12-01T03:15:59.759Z,98838.25
2022-12-01T03:18:38.724Z,98846.22
2022-12-01T03:21:06.314Z,98849.94
2022-12-01T03:23:37.806Z,98852.63
2022-12-01T03:26:07.480Z,98852.94
2022-12-01T03:28:39.876Z,98851.44
2022-12-01T03:31:11.965Z,98851.28
2022-12-01T03:33:47.358Z,98855.09
2022-12-01T03:36:20.932Z,98850.31
2022-12-01T03:38:55.140Z,98853.88
2022-12-01T03:41:28.185Z,98847.03
2022-12-01T03:43:59.987Z,98845.25
2022-12-01T03:46:42.516Z,98844.88
2022-12-01T03:49:09.882Z,98846.94
2022-12-01T03:51:43.271Z,98845.44
2022-12-01T03:54:33.633Z,98843.97
2022-12-01T03:57:05.875Z,98836.94
2022-12-01T03:59:35.929Z,98843.81
2022-12-01T04:02:02.900Z,98845.44
2022-12-01T04:04:29.656Z,98842.16
2022-12-01T04:06:56.246Z,98853.41
2022-12-01T04:09:22.899Z,98850.13
2022-12-01T04:12:04.951Z,98851.06
2022-12-01T04:14:32.050Z,98849.97
2022-12-01T04:16:58.636Z,98855.41
2022-12-01T04:19:25.711Z,98852.06
2022-12-01T04:21:52.335Z,98856.19
2022-12-01T04:24:19.115Z,98855.56
2022-12-01T04:26:46.166Z,98863.47
2022-12-01T04:29:16.288Z,98860.63
2022-12-01T04:31:44.283Z,98863.00
2022-12-01T04:34:11.162Z,98860.78
2022-12-01T04:36:37.843Z,98860.13
2022-12-01T04:39:04.507Z,98855.06
2022-12-01T04:41:31.258Z,98865.03
2022-12-01T04:43:57.911Z,98856.91
2022-12-01T04:46:25.212Z,98859.75
2022-12-01T04:48:52.266Z,98860.78
2022-12-01T04:51:19.011Z,98853.50
2022-12-01T04:53:45.643Z,98852.31
2022-12-01T04:56:12.323Z,98854.63
2022-12-01T04:58:38.972Z,98866.38
2022-12-01T05:01:08.423Z,98854.78
2022-12-01T05:03:38.283Z,98862.88
2022-12-01T05:06:07.812Z,98867.78
2022-12-01T05:08:34.434Z,98864.06
2022-12-01T05:11:01.349Z,98867.34
2022-12-01T05:13:28.508Z,98862.44
2022-12-01T05:16:05.562Z,98864.06
2022-12-01T05:18:32.430Z,98863.78
2022-12-01T05:20:59.149Z,98868.19
2022-12-01T05:23:28.504Z,98866.75
2022-12-01T05:25:57.188Z,98866.47
2022-12-01T05:28:26.897Z,98867.97
2022-12-01T05:30:54.716Z,98857.25
2022-12-01T05:33:23.092Z,98859.41
2022-12-01T05:35:50.680Z,98861.59
2022-12-01T05:38:18.396Z,98861.28
2022-12-01T05:40:54.491Z,98860.19
2022-12-01T05:43:28.529Z,98860.03
2022-12-01T05:45:55.812Z,98863.31
2022-12-01T05:48:22.804Z,98861.53
2022-12-01T05:50:52.631Z,98857.00
2022-12-01T05:53:22.989Z,98860.25
2022-12-01T05:55:56.844Z,98859.28
2022-12-01T05:58:23.792Z,98864.88
2022-12-01T06:00:50.569Z,98859.38
2022-12-01T06:03:17.258Z,98856.59
2022-12-01T06:05:43.898Z,98859.06
2022-12-01T06:08:10.554Z,98860.28
2022-12-01T06:10:37.214Z,98861.16
2022-12-01T06:13:03.828Z,98868.00
2022-12-01T06:15:30.439Z,98865.25
2022-12-01T06:17:59.472Z,98865.63
2022-12-01T06:20:26.065Z,98873.28
2022-12-01T06:22:52.742Z,98859.97
2022-12-01T06:25:19.386Z,98866.78
2022-12-01T06:27:46.001Z,98873.88
2022-12-01T06:30:13.012Z,98884.84
2022-12-01T06:32:39.688Z,98883.56
2022-12-01T06:35:06.919Z,98886.00
2022-12-01T06:37:33.589Z,98894.53
2022-12-01T06:40:00.214Z,98896.28
2022-12-01T06:42:30.490Z,98884.25
2022-12-01T06:44:57.216Z,98887.22
2022-12-01T06:47:23.902Z,98893.25
2022-12-01T06:49:50.841Z,98889.94
2022-12-01T06:52:17.620Z,98889.81
2022-12-01T06:54:44.253Z,98899.00
2022-12-01T06:57:11.175Z,98896.75
2022-12-01T06:59:37.937Z,98902.78
2022-12-01T07:02:04.688Z,98898.53
2022-12-01T07:04:31.415Z,98900.69
2022-12-01T07:06:58.101Z,98903.00
2022-12-01T07:09:24.671Z,98897.94
2022-12-01T07:11:51.291Z,98896.81
2022-12-01T07:14:25.001Z,98906.28
2022-12-01T07:16:51.863Z,98901.34
2022-12-01T07:19:18.586Z,98907.59
2022-12-01T07:21:45.687Z,98917.13
2022-12-01T07:24:12.654Z,98910.63
2022-12-01T07:26:40.391Z,98919.19
2022-12-01T07:29:08.742Z,98925.44
2022-12-01T07:31:35.998Z,98924.34
2022-12-01T07:34:02.731Z,98937.00
2022-12-01T07:36:29.464Z,98936.47
2022-12-01T07:38:56.130Z,98932.38
2022-12-01T07:41:22.986Z,98931.78
2022-12-01T07:43:49.576Z,98936.78
2022-12-01T07:46:23.178Z,98937.81
2022-12-01T07:48:50.227Z,98952.97
2022-12-01T07:51:17.768Z,98936.78
2022-12-01T07:53:47.102Z,98944.47
2022-12-01T07:56:13.932Z,98941.25
2022-12-01T07:58:41.387Z,98945.16
2022-12-01T08:01:12.466Z,98949.75
2022-12-01T08:03:39.690Z,98951.53
2022-12-01T08:06:07.932Z,98952.06
2022-12-01T08:08:37.220Z,98954.72
2022-12-01T08:11:07.159Z,98948.16
2022-12-01T08:13:34.232Z,98962.03
2022-12-01T08:16:05.277Z,98959.25
2022-12-01T08:18:35.539Z,98959.13
2022-12-01T08:21:02.587Z,98952.91
2022-12-01T08:23:29.193Z,98957.00
2022-12-01T08:25:57.587Z,98956.22
2022-12-01T08:28:24.203Z,98957.84
2022-12-01T08:30:50.938Z,98954.94
2022-12-01T08:33:17.658Z,98951.03
2022-12-01T08:35:44.389Z,98953.63
2022-12-01T08:38:11.201Z,98947.13
2022-12-01T08:40:38.147Z,98946.84
2022-12-01T08:43:05.671Z,98938.00
2022-12-01T08:45:32.436Z,98932.63
2022-12-01T08:47:59.934Z,98933.97
2022-12-01T08:50:27.131Z,98932.50
2022-12-01T08:52:54.264Z,98932.09
2022-12-01T08:55:22.026Z,98937.81
2022-12-01T08:57:48.691Z,98942.75
2022-12-01T09:00:16.240Z,98939.19
2022-12-01T09:02:42.962Z,98939.81
2022-12-01T09:05:09.751Z,98944.13
2022-12-01T09:07:36.445Z,98941.22
2022-12-01T09:10:03.397Z,98936.84
2022-12-01T09:12:30.154Z,98942.41
2022-12-01T09:14:56.945Z,98933.91
2022-12-01T09:17:23.843Z,98941.44
2022-12-01T09:19:50.743Z,98939.16
2022-12-01T09:22:17.636Z,98938.97
2022-12-01T09:24:44.230Z,98928.84
2022-12-01T09:27:10.906Z,98933.59
2022-12-01T09:29:37.506Z,98929.34
2022-12-01T09:32:04.135Z,98925.56
2022-12-01T09:34:30.754Z,98922.63
2022-12-01T09:36:58.635Z,98924.44
2022-12-01T09:39:25.853Z,98925.25
2022-12-01T09:41:57.747Z,98921.16
2022-12-01T09:44:38.646Z,98926.56
2022-12-01T09:47:14.580Z,98921.00
2022-12-01T09:50:02.481Z,98914.97
2022-12-01T09:52:39.840Z,98922.31
2022-12-01T09:55:15.824Z,98921.66
2022-12-01T09:57:44.051Z,98925.41
2022-12-01T10:00:17.737Z,98915.09
2022-12-01T10:02:52.161Z,98916.41
2022-12-01T10:05:23.851Z,98916.09
2022-12-01T10:08:02.443Z,98917.25
2022-12-01T10:10:34.576Z,98920.84
2022-12-01T10:13:01.608Z,98913.47
2022-12-01T10:15:43.544Z,98904.81
2022-12-01T10:18:25.474Z,98909.22
2022-12-01T10:20:55.727Z,98902.34
2022-12-01T10:23:39.325Z,98898.75
2022-12-01T10:26:17.844Z,98899.09
2022-12-01T10:28:53.898Z,98885.97
2022-12-01T10:31:24.187Z,98886.63
2022-12-01T10:33:58.545Z,98891.03
2022-12-01T10:36:26.823Z,98889.41
2022-12-01T10:38:53.693Z,98882.34
2022-12-01T10:41:23.326Z,98876.31
2022-12-01T10:43:54.007Z,98873.19
2022-12-01T10:46:27.455Z,98874.50
2022-12-01T10:48:58.351Z,98877.13
2022-12-01T10:51:26.145Z,98869.41
2022-12-01T10:54:11.463Z,98868.28
2022-12-01T10:56:41.033Z,98871.22
2022-12-01T10:59:38.161Z,98877.13
2022-12-01T11:02:16.169Z,98872.88
2022-12-01T11:04:46.544Z,98860.09
2022-12-01T11:07:20.424Z,98866.00
2022-12-01T11:09:59.205Z,98867.00
2022-12-01T11:12:26.095Z,98862.06
2022-12-01T11:14:55.682Z,98864.38
2022-12-01T11:17:27.055Z,98857.81
2022-12-01T11:19:53.849Z,98858.13
2022-12-01T11:22:30.942Z,98856.13
2022-12-01T11:25:00.650Z,98854.19
2022-12-01T11:27:31.823Z,98844.63
2022-12-01T11:30:05.009Z,98840.91
2022-12-01T11:32:37.078Z,98841.72
2022-12-01T11:35:22.937Z,98842.31
2022-12-01T11:40:59.195Z,98836.94
2022-12-01T11:43:29.827Z,98835.16
2022-12-01T11:45:59.722Z,98829.34
2022-12-01T11:48:29.219Z,98841.50
2022-12-01T11:51:11.036Z,98828.28
2022-12-01T11:53:40.594Z,98828.28
2022-12-01T11:56:24.132Z,98831.53
2022-12-01T11:58:59.354Z,98831.22
2022-12-01T12:01:58.087Z,98827.44
2022-12-01T12:04:40.410Z,98835.28
2022-12-01T12:07:23.404Z,98820.06
2022-12-01T12:10:06.338Z,98817.97
2022-12-01T12:13:08.261Z,98820.41
2022-12-01T12:15:55.849Z,98819.78
2022-12-01T12:18:51.671Z,98815.53
2022-12-01T12:21:33.373Z,98816.81
2022-12-01T12:24:15.296Z,98818.63
2022-12-01T12:26:58.402Z,98817.00
2022-12-01T12:29:38.714Z,98818.66
2022-12-01T12:32:35.135Z,98820.31
2022-12-01T12:35:22.679Z,98815.91
2022-12-01T12:40:41.623Z,98808.06
2022-12-01T12:43:23.896Z,98806.56
2022-12-01T12:49:18.141Z,98806.06
2022-12-01T12:51:44.810Z,98809.97
2022-12-01T12:54:12.545Z,98807.34
2022-12-01T12:56:44.645Z,98811.63
2022-12-01T12:59:19.252Z,98810.31
2022-12-01T13:02:04.194Z,98809.84
2022-12-01T13:04:42.127Z,98809.03
2022-12-01T13:07:23.283Z,98805.22
2022-12-01T13:10:00.643Z,98808.38
2022-12-01T13:12:31.714Z,98797.88
2022-12-01T13:15:13.650Z,98801.34
2022-12-01T13:17:42.976Z,98803.44
2022-12-01T13:20:16.075Z,98802.47
2022-12-01T13:22:43.282Z,98800.19
2022-12-01T13:25:15.258Z,98799.34
2022-12-01T13:27:44.176Z,98802.06
2022-12-01T13:30:26.603Z,98793.78
2022-12-01T13:33:03.869Z,98796.56
2022-12-01T13:35:33.338Z,98798.84
2022-12-01T13:38:25.027Z,98797.53
2022-12-01T13:41:11.264Z,98801.84
2022-12-01T13:43:52.000Z,98801.84
2022-12-01T13:46:22.605Z,98802.50
2022-12-01T13:48:54.553Z,98797.41
2022-12-01T13:51:21.381Z,98798.19
2022-12-01T13:54:19.575Z,98790.03
2022-12-01T13:57:01.700Z,98799.34
2022-12-01T13:59:58.891Z,98798.38
2022-12-01T14:02:29.197Z,98802.16
2022-12-01T14:05:30.538Z,98806.75
2022-12-01T14:07:57.963Z,98809.16
2022-12-01T14:10:29.724Z,98804.28
2022-12-01T14:13:01.862Z,98809.69
2022-12-01T14:15:34.700Z,98805.47
2022-12-01T14:18:18.875Z,98806.78
2022-12-01T14:20:48.436Z,98810.06
2022-12-01T14:23:18.177Z,98813.81
2022-12-01T14:25:58.557Z,98809.38
2022-12-01T14:29:00.650Z,98818.25
2022-12-01T14:32:08.311Z,98818.91
2022-12-01T14:34:37.824Z,98812.53
2022-12-01T14:37:05.451Z,98811.38
2022-12-01T14:39:36.091Z,98808.28
2022-12-01T14:42:37.109Z,98815.31
2022-12-01T14:45:05.523Z,98814.00
2022-12-01T14:47:44.611Z,98816.97
2022-12-01T14:50:19.610Z,98817.28
2022-12-01T14:52:52.662Z,98823.84
2022-12-01T14:55:25.107Z,98821.22
2022-12-01T14:58:00.371Z,98823.50
2022-12-01T15:00:27.873Z,98816.00
2022-12-01T15:03:03.271Z,98820.88
2022-12-01T15:05:32.652Z,98821.84
2022-12-01T15:08:40.322Z,98827.94
2022-12-01T15:11:09.444Z,98820.22
2022-12-01T15:13:54.274Z,98822.84
2022-12-01T15:16:23.773Z,98821.53
2022-12-01T15:18:51.238Z,98817.94
2022-12-01T15:21:25.778Z,98817.13
2022-12-01T15:23:54.932Z,98826.78
2022-12-01T15:26:24.320Z,98824.16
2022-12-01T15:29:03.614Z,98819.91
2022-12-01T15:31:30.765Z,98824.50
2022-12-01T15:33:57.799Z,98827.44
2022-12-01T15:36:24.602Z,98826.59
2022-12-01T15:38:51.607Z,98825.81
2022-12-01T15:41:29.961Z,98832.00
2022-12-01T15:44:00.700Z,98833.31
2022-12-01T15:46:30.832Z,98838.53
2022-12-01T15:49:17.712Z,98837.41
2022-12-01T15:51:44.708Z,98830.72
2022-12-01T15:54:18.120Z,98834.13
2022-12-01T15:56:45.670Z,98834.63
2022-12-01T15:59:12.258Z,98835.63
2022-12-01T16:01:41.260Z,98830.03
2022-12-01T16:04:25.471Z,98829.56
2022-12-01T16:06:58.849Z,98831.03
2022-12-01T16:09:28.675Z,98827.94
2022-12-01T16:12:05.437Z,98836.25
2022-12-01T16:14:33.571Z,98837.09
2022-12-01T16:17:00.286Z,98841.81
2022-12-01T16:19:30.842Z,98852.63
2022-12-01T16:22:17.988Z,98847.72
2022-12-01T16:24:51.546Z,98846.72
2022-12-01T16:27:28.452Z,98846.25
2022-12-01T16:30:01.777Z,98850.16
2022-12-01T16:32:38.721Z,98851.31
2022-12-01T16:35:21.511Z,98850.97
2022-12-01T16:37:48.149Z,98850.97
2022-12-01T16:40:16.972Z,98858.34
2022-12-01T16:42:43.756Z,98865.69
2022-12-01T16:45:14.774Z,98863.72
2022-12-01T16:47:42.475Z,98861.44
2022-12-01T16:50:15.003Z,98864.41
2022-12-01T16:52:45.027Z,98875.16
2022-12-01T16:55:26.123Z,98866.97
2022-12-01T16:57:52.739Z,98866.00
2022-12-01T17:00:19.751Z,98868.75
2022-12-01T17:02:46.409Z,98865.19
2022-12-01T17:05:13.111Z,98871.91
2022-12-01T17:07:39.889Z,98872.88
2022-12-01T17:10:07.322Z,98873.84
2022-12-01T17:12:33.954Z,98874.69
2022-12-01T17:15:00.631Z,98874.97
2022-12-01T17:17:29.761Z,98871.81
2022-12-01T17:19:56.800Z,98865.13
2022-12-01T17:22:24.479Z,98863.31
2022-12-01T17:24:51.464Z,98868.25
2022-12-01T17:27:18.282Z,98865.47
2022-12-01T17:29:46.372Z,98864.84
2022-12-01T17:32:14.110Z,98860.59
2022-12-01T17:34:41.024Z,98869.75
2022-12-01T17:37:07.953Z,98864.63
2022-12-01T17:39:34.529Z,98867.75
2022-12-01T17:42:01.209Z,98867.91
2022-12-01T17:44:27.849Z,98871.03
2022-12-01T17:46:54.580Z,98876.38
2022-12-01T17:49:21.447Z,98875.06
2022-12-01T17:51:48.120Z,98869.66
2022-12-01T17:54:18.997Z,98876.53
2022-12-01T17:56:45.984Z,98873.09
2022-12-01T17:59:15.916Z,98869.38
2022-12-01T18:01:43.501Z,98875.41
2022-12-01T18:04:10.313Z,98882.09
2022-12-01T18:06:36.990Z,98875.84
2022-12-01T18:09:04.147Z,98882.53
2022-12-01T18:11:30.814Z,98869.50
2022-12-01T18:13:58.467Z,98873.59
2022-12-01T18:16:29.162Z,98865.22
2022-12-01T18:18:57.705Z,98873.91
2022-12-01T18:21:25.908Z,98861.53
2022-12-01T18:23:54.712Z,98870.00
2022-12-01T18:26:22.790Z,98876.50
2022-12-01T18:29:00.716Z,98869.81
2022-12-01T18:31:28.938Z,98874.88
2022-12-01T18:33:58.901Z,98881.59
2022-12-01T18:36:26.559Z,98886.38
2022-12-01T18:38:54.616Z,98882.72
2022-12-01T18:41:21.321Z,98882.88
2022-12-01T18:43:47.972Z,98883.69
2022-12-01T18:46:16.692Z,98881.75
2022-12-01T18:48:46.521Z,98874.06
2022-12-01T18:51:13.994Z,98874.59
2022-12-01T18:53:40.888Z,98879.94
2022-12-01T18:56:11.890Z,98873.75
2022-12-01T18:58:40.708Z,98876.69
2022-12-01T19:01:22.738Z,98879.28
2022-12-01T19:03:49.478Z,98876.03
2022-12-01T19:06:16.977Z,98873.41
2022-12-01T19:08:44.568Z,98875.84
2022-12-01T19:11:11.315Z,98879.31
2022-12-01T19:13:38.162Z,98869.19
2022-12-01T19:16:19.409Z,98863.94
2022-12-01T19:18:46.531Z,98863.78
2022-12-01T19:21:15.876Z,98855.09
2022-12-01T19:23:43.230Z,98858.06
2022-12-01T19:26:13.351Z,98862.94
2022-12-01T19:28:42.193Z,98864.09
2022-12-01T19:31:12.160Z,98854.59
2022-12-01T19:33:39.484Z,98857.69
2022-12-01T19:36:16.539Z,98866.69
2022-12-01T19:38:44.492Z,98855.28
2022-12-01T19:41:11.981Z,98856.91
2022-12-01T19:43:38.647Z,98863.44
2022-12-01T19:46:11.531Z,98860.66
2022-12-01T19:48:39.737Z,98860.66
2022-12-01T19:51:06.818Z,98862.47
2022-12-01T19:53:34.334Z,98864.25
2022-12-01T19:56:03.538Z,98856.41
2022-12-01T19:58:33.320Z,98858.50
2022-12-01T20:01:06.181Z,98856.56
2022-12-01T20:03:33.376Z,98850.66
2022-12-01T20:06:07.296Z,98854.13
2022-12-01T20:08:40.385Z,98851.50
2022-12-01T20:11:07.746Z,98856.91
2022-12-01T20:13:36.059Z,98850.66
2022-12-01T20:16:06.362Z,98857.69
2022-12-01T20:18:33.245Z,98850.03
2022-12-01T20:21:17.340Z,98844.63
2022-12-01T20:23:46.860Z,98856.06
2022-12-01T20:26:15.019Z,98856.06
2022-12-01T20:28:42.135Z,98852.63
2022-12-01T20:31:13.999Z,98852.63
2022-12-01T20:33:41.789Z,98848.22
2022-12-01T20:36:09.622Z,98851.66
2022-12-01T20:38:37.352Z,98850.66
2022-12-01T20:41:05.672Z,98849.06
2022-12-01T20:43:33.517Z,98851.84
2022-12-01T20:46:00.865Z,98856.06
2022-12-01T20:48:28.216Z,98849.06
2022-12-01T20:50:55.361Z,98852.63
2022-12-01T20:53:22.717Z,98852.47
2022-12-01T20:55:49.427Z,98853.44
2022-12-01T20:58:16.114Z,98848.22
2022-12-01T21:00:44.578Z,98851.50
2022-12-01T21:03:12.573Z,98858.66
2022-12-01T21:05:40.763Z,98859.50
2022-12-01T21:08:10.601Z,98855.75
2022-12-01T21:10:39.928Z,98854.75
2022-12-01T21:13:37.747Z,98854.13
2022-12-01T21:16:12.354Z,98853.44
2022-12-01T21:18:51.396Z,98856.22
2022-12-01T21:21:24.087Z,98855.72
2022-12-01T21:24:03.051Z,98850.47
2022-12-01T21:26:29.680Z,98858.31
2022-12-01T21:28:59.780Z,98850.34
2022-12-01T21:31:26.945Z,98856.38
2022-12-01T21:33:54.035Z,98855.59
2022-12-01T21:36:22.593Z,98853.94
2022-12-01T21:39:05.531Z,98858.66
2022-12-01T21:41:32.184Z,98852.63
2022-12-01T21:44:07.632Z,98854.59
2022-12-01T21:46:35.280Z,98851.00
2022-12-01T21:49:02.455Z,98853.59
2022-12-01T21:51:30.830Z,98853.78
2022-12-01T21:53:57.923Z,98855.41
2022-12-01T21:56:29.183Z,98860.66
2022-12-01T21:58:59.990Z,98862.59
2022-12-01T22:01:32.706Z,98859.50
2022-12-01T22:04:02.735Z,98862.28
2022-12-01T22:06:37.869Z,98862.59
2022-12-01T22:09:19.643Z,98859.50
2022-12-01T22:11:51.976Z,98859.66
2022-12-01T22:14:22.046Z,98867.97
2022-12-01T22:16:55.143Z,98867.50
2022-12-01T22:19:38.211Z,98875.97
2022-12-01T22:22:23.618Z,98862.06
2022-12-01T22:24:53.851Z,98865.34
2022-12-01T22:27:22.584Z,98855.72
2022-12-01T22:29:52.879Z,98862.72
2022-12-01T22:32:21.510Z,98865.78
2022-12-01T22:34:53.485Z,98864.41
2022-12-01T22:37:23.331Z,98856.72
2022-12-01T22:39:53.936Z,98857.06
2022-12-01T22:42:31.205Z,98864.56
2022-12-01T22:45:15.962Z,98855.72
2022-12-01T22:47:42.533Z,98860.75
2022-12-01T22:50:26.317Z,98858.63
2022-12-01T22:52:55.619Z,98861.22
2022-12-01T22:55:22.273Z,98852.88
2022-12-01T22:57:48.901Z,98855.13
2022-12-01T23:00:20.667Z,98854.16
2022-12-01T23:02:48.797Z,98861.78
2022-12-01T23:05:23.380Z,98851.19
2022-12-01T23:07:51.289Z,98856.91
2022-12-01T23:10:25.135Z,98854.31
2022-12-01T23:12:54.976Z,98861.78
2022-12-01T23:15:39.513Z,98852.66
2022-12-01T23:18:22.859Z,98855.63
2022-12-01T23:20:51.746Z,98843.69
2022-12-01T23:23:21.364Z,98844.81
2022-12-01T23:25:50.151Z,98845.34
2022-12-01T23:28:17.370Z,98842.66
2022-12-01T23:30:46.147Z,98839.59
2022-12-01T23:33:22.471Z,98836.88
2022-12-01T23:36:08.970Z,98842.38
2022-12-01T23:38:36.606Z,98843.03
2022-12-01T23:41:07.687Z,98839.75
2022-12-01T23:43:40.079Z,98844.78
2022-12-01T23:46:24.348Z,98841.66
2022-12-01T23:49:00.113Z,98845.72
2022-12-01T23:51:31.865Z,98839.19
2022-12-01T23:54:06.211Z,98838.91
2022-12-01T23:56:32.972Z,98835.28
2022-12-01T23:59:01.165Z,98838.88
